createdAt,value
2023-03-06T00:00:34.640Z,41.63
2023-03-06T00:01:38.261Z,41.83
2023-03-06T00:02:41.825Z,41.20
2023-03-06T00:03:47.087Z,40.77
2023-03-06T00:04:50.708Z,43.53
2023-03-06T00:05:54.431Z,42.22
2023-03-06T00:06:58.099Z,41.85
2023-03-06T00:08:01.797Z,44.17
2023-03-06T00:09:05.489Z,42.90
2023-03-06T00:10:15.231Z,41.65
2023-03-06T00:11:18.943Z,43.70
2023-03-06T00:12:24.712Z,42.47
2023-03-06T00:13:28.436Z,42.95
2023-03-06T00:14:31.965Z,42.40
2023-03-06T00:15:35.979Z,43.10
2023-03-06T00:16:39.663Z,42.58
2023-03-06T00:17:43.246Z,39.28
2023-03-06T00:18:48.545Z,41.75
2023-03-06T00:19:52.176Z,40.70
2023-03-06T00:20:55.886Z,41.67
2023-03-06T00:21:59.459Z,43.10
2023-03-06T00:23:03.355Z,41.83
2023-03-06T00:24:07.416Z,41.05
2023-03-06T00:25:14.925Z,40.70
2023-03-06T00:26:18.623Z,42.78
2023-03-06T00:27:22.487Z,40.35
2023-03-06T00:28:26.166Z,43.90
2023-03-06T00:29:29.810Z,40.83
2023-03-06T00:30:33.444Z,42.27
2023-03-06T00:31:37.163Z,42.20
2023-03-06T00:32:40.875Z,41.08
2023-03-06T00:33:44.555Z,43.03
2023-03-06T00:34:51.986Z,40.30
2023-03-06T00:35:55.741Z,40.03
2023-03-06T00:36:59.344Z,40.25
2023-03-06T00:38:02.953Z,41.60
2023-03-06T00:39:06.666Z,39.58
2023-03-06T00:40:13.899Z,40.63
2023-03-06T00:41:17.513Z,39.67
2023-03-06T00:42:21.280Z,40.20
2023-03-06T00:43:24.935Z,40.80
2023-03-06T00:44:28.656Z,41.20
2023-03-06T00:45:32.263Z,41.10
2023-03-06T00:46:35.998Z,40.00
2023-03-06T00:47:39.878Z,42.50
2023-03-06T00:48:44.295Z,40.42
2023-03-06T00:49:47.962Z,39.60
2023-03-06T00:50:53.210Z,39.85
2023-03-06T00:51:56.913Z,41.20
2023-03-06T00:53:00.560Z,40.50
2023-03-06T00:54:04.305Z,44.10
2023-03-06T00:55:08.912Z,41.80
2023-03-06T00:56:12.530Z,40.40
2023-03-06T00:57:16.174Z,42.27
2023-03-06T00:58:20.025Z,40.97
2023-03-06T00:59:23.770Z,40.33
2023-03-06T01:00:27.474Z,40.05
2023-03-06T01:01:31.135Z,42.60
2023-03-06T01:02:34.744Z,40.77
2023-03-06T01:03:38.391Z,40.90
2023-03-06T01:04:42.124Z,40.80
2023-03-06T01:05:45.794Z,41.42
2023-03-06T01:06:51.097Z,44.47
2023-03-06T01:07:54.927Z,42.70
2023-03-06T01:08:58.646Z,41.15
2023-03-06T01:10:02.215Z,41.92
2023-03-06T01:11:06.145Z,42.15
2023-03-06T01:12:10.291Z,41.03
2023-03-06T01:13:13.910Z,43.33
2023-03-06T01:14:17.534Z,41.97
2023-03-06T01:15:22.045Z,39.67
2023-03-06T01:16:25.939Z,40.80
2023-03-06T01:17:29.672Z,41.22
2023-03-06T01:18:33.289Z,39.37
2023-03-06T01:19:36.921Z,40.03
2023-03-06T01:20:40.601Z,41.38
2023-03-06T01:21:44.371Z,39.20
2023-03-06T01:22:49.745Z,41.10
2023-03-06T01:23:53.408Z,37.67
2023-03-06T01:24:56.981Z,37.45
2023-03-06T01:26:00.703Z,38.67
2023-03-06T01:27:04.519Z,40.78
2023-03-06T01:28:08.115Z,39.10
2023-03-06T01:29:11.690Z,37.50
2023-03-06T01:30:15.646Z,38.22
2023-03-06T01:31:19.317Z,40.15
2023-03-06T01:32:23.101Z,37.60
2023-03-06T01:33:26.788Z,40.42
2023-03-06T01:34:30.450Z,37.83
2023-03-06T01:35:34.233Z,38.75
2023-03-06T01:36:38.012Z,38.72
2023-03-06T01:37:41.785Z,35.83
2023-03-06T01:38:47.017Z,36.60
2023-03-06T01:39:50.681Z,34.83
2023-03-06T01:40:54.275Z,34.88
2023-03-06T01:41:57.924Z,35.38
2023-03-06T01:43:10.894Z,34.53
2023-03-06T01:44:14.484Z,36.40
2023-03-06T01:45:53.901Z,36.27
2023-03-06T01:46:57.691Z,35.95
2023-03-06T01:48:01.346Z,36.50
2023-03-06T01:49:08.756Z,37.85
2023-03-06T01:50:13.791Z,39.38
2023-03-06T01:51:17.729Z,35.07
2023-03-06T01:52:24.678Z,37.15
2023-03-06T01:53:28.749Z,37.92
2023-03-06T01:54:37.105Z,36.53
2023-03-06T01:55:40.986Z,36.22
2023-03-06T01:56:47.618Z,37.90
2023-03-06T01:57:54.321Z,38.33
2023-03-06T01:58:59.126Z,36.13
2023-03-06T02:00:07.958Z,37.60
2023-03-06T02:01:12.126Z,36.97
2023-03-06T02:02:16.629Z,36.20
2023-03-06T02:03:23.529Z,38.72
2023-03-06T02:04:27.343Z,37.05
2023-03-06T02:05:31.232Z,38.17
2023-03-06T02:06:36.664Z,35.70
2023-03-06T02:07:42.792Z,36.50
2023-03-06T02:08:47.876Z,34.03
2023-03-06T02:09:53.149Z,36.55
2023-03-06T02:11:01.961Z,35.72
2023-03-06T02:12:09.951Z,35.28
2023-03-06T02:13:13.629Z,35.70
2023-03-06T02:14:18.723Z,35.53
2023-03-06T02:15:25.422Z,37.20
2023-03-06T02:16:32.477Z,35.80
2023-03-06T02:17:37.489Z,34.70
2023-03-06T02:18:43.107Z,37.87
2023-03-06T02:19:56.888Z,34.50
2023-03-06T02:21:04.966Z,37.70
2023-03-06T02:22:08.744Z,35.75
2023-03-06T02:23:18.934Z,36.38
2023-03-06T02:24:33.170Z,35.47
2023-03-06T02:25:40.973Z,37.03
2023-03-06T02:26:47.870Z,34.72
2023-03-06T02:27:51.555Z,35.95
2023-03-06T02:28:55.186Z,35.42
2023-03-06T02:29:58.915Z,34.93
2023-03-06T02:31:02.575Z,34.60
2023-03-06T02:32:06.758Z,36.45
2023-03-06T02:33:13.925Z,34.65
2023-03-06T02:34:52.714Z,35.85
2023-03-06T02:35:58.562Z,36.90
2023-03-06T02:37:05.817Z,38.20
2023-03-06T02:38:12.190Z,38.30
2023-03-06T02:39:16.828Z,35.15
2023-03-06T02:40:22.677Z,35.78
2023-03-06T02:41:27.966Z,34.73
2023-03-06T02:42:31.843Z,35.42
2023-03-06T02:43:40.841Z,36.70
2023-03-06T02:44:44.500Z,36.10
2023-03-06T02:45:50.690Z,35.70
2023-03-06T02:46:54.288Z,37.73
2023-03-06T02:47:57.877Z,35.65
2023-03-06T02:49:01.558Z,35.63
2023-03-06T02:50:05.599Z,35.53
2023-03-06T02:51:09.197Z,34.80
2023-03-06T02:52:12.849Z,34.83
2023-03-06T02:53:17.900Z,34.65
2023-03-06T02:54:21.636Z,38.42
2023-03-06T02:55:25.677Z,37.65
2023-03-06T02:56:30.941Z,35.40
2023-03-06T02:57:34.611Z,35.93
2023-03-06T02:58:38.322Z,34.90
2023-03-06T02:59:42.098Z,36.08
2023-03-06T03:00:45.882Z,36.90
2023-03-06T03:01:49.576Z,35.85
2023-03-06T03:02:53.585Z,35.63
2023-03-06T03:03:57.204Z,38.38
2023-03-06T03:05:00.906Z,36.65
2023-03-06T03:06:06.227Z,36.25
2023-03-06T03:07:09.874Z,36.55
2023-03-06T03:08:13.695Z,39.00
2023-03-06T03:09:17.396Z,39.78
2023-03-06T03:10:21.328Z,37.97
2023-03-06T03:11:24.883Z,36.50
2023-03-06T03:12:30.227Z,35.78
2023-03-06T03:13:34.133Z,34.23
2023-03-06T03:14:37.744Z,33.25
2023-03-06T03:15:41.364Z,33.88
2023-03-06T03:16:45.121Z,33.20
2023-03-06T03:17:48.671Z,32.03
2023-03-06T03:18:52.344Z,32.23
2023-03-06T03:19:55.961Z,30.27
2023-03-06T03:20:59.983Z,30.70
2023-03-06T03:22:03.568Z,32.33
2023-03-06T03:23:07.238Z,33.45
2023-03-06T03:24:10.952Z,30.90
2023-03-06T03:25:14.662Z,31.20
2023-03-06T03:26:20.330Z,32.00
2023-03-06T03:27:24.066Z,29.77
2023-03-06T03:28:29.445Z,28.40
2023-03-06T03:29:33.426Z,29.20
2023-03-06T03:30:37.106Z,29.13
2023-03-06T03:31:40.833Z,28.80
2023-03-06T03:32:44.669Z,29.38
2023-03-06T03:33:48.339Z,29.48
2023-03-06T03:34:51.979Z,29.20
2023-03-06T03:35:58.648Z,28.85
2023-03-06T03:37:02.323Z,29.05
2023-03-06T03:38:06.010Z,27.50
2023-03-06T03:39:09.620Z,30.05
2023-03-06T03:40:14.146Z,29.93
2023-03-06T03:41:17.821Z,29.75
2023-03-06T03:42:21.702Z,33.25
2023-03-06T03:43:25.331Z,32.17
2023-03-06T03:44:30.584Z,31.27
2023-03-06T03:45:34.176Z,32.30
2023-03-06T03:46:38.184Z,34.05
2023-03-06T03:47:42.140Z,32.53
2023-03-06T03:48:45.886Z,32.92
2023-03-06T03:49:49.515Z,31.55
2023-03-06T03:50:53.535Z,33.13
2023-03-06T03:51:57.163Z,31.45
2023-03-06T03:53:00.873Z,31.92
2023-03-06T03:54:04.648Z,32.85
2023-03-06T03:55:09.307Z,31.50
2023-03-06T03:56:13.659Z,31.00
2023-03-06T03:57:17.306Z,33.13
2023-03-06T03:58:20.920Z,31.73
2023-03-06T03:59:24.555Z,33.78
2023-03-06T04:00:30.257Z,31.92
2023-03-06T04:01:33.949Z,31.80
2023-03-06T04:02:37.568Z,32.33
2023-03-06T04:03:41.254Z,32.15
2023-03-06T04:04:44.989Z,34.45
2023-03-06T04:05:48.718Z,35.30
2023-03-06T04:06:52.279Z,34.27
2023-03-06T04:07:55.908Z,35.53
2023-03-06T04:08:59.598Z,33.08
2023-03-06T04:10:03.288Z,34.13
2023-03-06T04:11:07.146Z,34.17
2023-03-06T04:12:10.985Z,33.10
2023-03-06T04:13:14.699Z,34.28
2023-03-06T04:14:18.367Z,32.70
2023-03-06T04:15:22.021Z,33.25
2023-03-06T04:16:27.431Z,34.03
2023-03-06T04:17:31.269Z,32.93
2023-03-06T04:18:34.859Z,34.47
2023-03-06T04:19:38.504Z,35.38
2023-03-06T04:20:42.080Z,36.22
2023-03-06T04:21:45.837Z,35.45
2023-03-06T04:22:49.486Z,36.60
2023-03-06T04:23:53.073Z,34.63
2023-03-06T04:24:56.793Z,35.63
2023-03-06T04:26:00.532Z,33.47
2023-03-06T04:27:04.300Z,37.20
2023-03-06T04:28:08.652Z,33.97
2023-03-06T04:29:12.402Z,35.70
2023-03-06T04:30:16.309Z,36.45
2023-03-06T04:31:19.994Z,35.38
2023-03-06T04:32:25.391Z,35.13
2023-03-06T04:33:29.170Z,34.83
2023-03-06T04:34:32.845Z,35.35
2023-03-06T04:35:36.785Z,35.85
2023-03-06T04:36:41.052Z,36.40
2023-03-06T04:37:44.747Z,33.88
2023-03-06T04:38:48.470Z,35.10
2023-03-06T04:39:52.706Z,35.15
2023-03-06T04:40:56.323Z,34.25
2023-03-06T04:42:00.008Z,35.17
2023-03-06T04:43:04.974Z,36.60
2023-03-06T04:44:08.865Z,35.67
2023-03-06T04:45:12.977Z,34.88
2023-03-06T04:46:16.605Z,34.30
2023-03-06T04:47:20.389Z,35.97
2023-03-06T04:48:25.692Z,34.85
2023-03-06T04:49:29.369Z,34.93
2023-03-06T04:50:33.046Z,33.50
2023-03-06T04:51:36.754Z,34.05
2023-03-06T04:52:40.647Z,35.05
2023-03-06T04:53:44.238Z,36.55
2023-03-06T04:54:47.807Z,34.67
2023-03-06T04:55:51.452Z,36.38
2023-03-06T04:56:55.109Z,37.33
2023-03-06T04:57:59.027Z,37.08
2023-03-06T04:59:03.721Z,37.78
2023-03-06T05:00:09.864Z,36.97
2023-03-06T05:01:13.972Z,34.78
2023-03-06T05:02:17.702Z,38.38
2023-03-06T05:03:21.433Z,37.65
2023-03-06T05:04:26.787Z,37.60
2023-03-06T05:05:30.502Z,34.50
2023-03-06T05:06:34.140Z,34.78
2023-03-06T05:07:37.775Z,36.70
2023-03-06T05:08:41.426Z,35.05
2023-03-06T05:09:44.997Z,35.80
2023-03-06T05:10:55.734Z,35.67
2023-03-06T05:11:59.389Z,34.45
2023-03-06T05:13:03.103Z,36.47
2023-03-06T05:14:06.716Z,33.15
2023-03-06T05:15:12.064Z,34.55
2023-03-06T05:16:16.073Z,34.17
2023-03-06T05:17:19.630Z,34.50
2023-03-06T05:18:23.531Z,36.33
2023-03-06T05:19:28.844Z,34.08
2023-03-06T05:20:32.510Z,33.33
2023-03-06T05:21:36.208Z,35.57
2023-03-06T05:22:40.116Z,34.05
2023-03-06T05:23:43.843Z,35.85
2023-03-06T05:24:47.476Z,34.80
2023-03-06T05:25:51.197Z,35.65
2023-03-06T05:26:55.007Z,35.07
2023-03-06T05:27:58.690Z,34.65
2023-03-06T05:29:02.314Z,34.70
2023-03-06T05:30:07.278Z,35.72
2023-03-06T05:31:11.044Z,34.88
2023-03-06T05:32:14.732Z,35.13
2023-03-06T05:33:18.822Z,34.60
2023-03-06T05:34:22.423Z,34.70
2023-03-06T05:35:27.827Z,37.60
2023-03-06T05:36:31.616Z,35.70
2023-03-06T05:37:35.356Z,36.87
2023-03-06T05:38:39.108Z,36.40
2023-03-06T05:39:42.789Z,35.42
2023-03-06T05:40:46.632Z,37.25
2023-03-06T05:41:50.288Z,38.00
2023-03-06T05:42:53.969Z,35.10
2023-03-06T05:43:57.645Z,35.15
2023-03-06T05:45:02.036Z,37.80
2023-03-06T05:46:07.200Z,34.65
2023-03-06T05:47:10.870Z,35.80
2023-03-06T05:48:14.813Z,37.83
2023-03-06T05:49:18.539Z,38.75
2023-03-06T05:50:22.385Z,36.80
2023-03-06T05:51:27.729Z,38.40
2023-03-06T05:52:31.426Z,36.75
2023-03-06T05:53:35.092Z,37.60
2023-03-06T05:54:38.792Z,37.83
2023-03-06T05:55:42.418Z,38.95
2023-03-06T05:56:46.081Z,38.17
2023-03-06T05:57:49.799Z,38.17
2023-03-06T05:58:53.380Z,38.30
2023-03-06T05:59:56.967Z,38.67
2023-03-06T06:01:01.050Z,35.90
2023-03-06T06:02:04.711Z,35.95
2023-03-06T06:03:08.445Z,37.03
2023-03-06T06:04:12.146Z,39.23
2023-03-06T06:05:15.983Z,37.38
2023-03-06T06:06:19.840Z,37.25
2023-03-06T06:07:25.411Z,36.88
2023-03-06T06:08:29.014Z,37.53
2023-03-06T06:09:32.961Z,36.90
2023-03-06T06:10:36.567Z,37.25
2023-03-06T06:11:40.248Z,38.30
2023-03-06T06:12:43.918Z,39.20
2023-03-06T06:13:49.184Z,40.78
2023-03-06T06:14:52.842Z,39.47
2023-03-06T06:15:56.572Z,40.40
2023-03-06T06:17:00.244Z,41.38
2023-03-06T06:18:03.889Z,42.65
2023-03-06T06:19:07.484Z,44.38
2023-03-06T06:20:12.359Z,43.10
2023-03-06T06:21:16.355Z,42.63
2023-03-06T06:22:20.027Z,44.22
2023-03-06T06:23:25.248Z,42.05
2023-03-06T06:24:28.877Z,40.28
2023-03-06T06:25:32.572Z,40.87
2023-03-06T06:26:36.145Z,39.45
2023-03-06T06:27:39.779Z,40.35
2023-03-06T06:28:43.387Z,41.00
2023-03-06T06:29:46.999Z,39.92
2023-03-06T06:30:50.883Z,42.00
2023-03-06T06:31:54.959Z,39.30
2023-03-06T06:32:58.659Z,39.05
2023-03-06T06:34:02.305Z,40.35
2023-03-06T06:35:06.593Z,40.03
2023-03-06T06:36:17.772Z,41.23
2023-03-06T06:37:21.393Z,42.20
2023-03-06T06:38:26.659Z,41.30
2023-03-06T06:39:30.331Z,39.47
2023-03-06T06:40:34.035Z,43.75
2023-03-06T06:41:55.270Z,42.13
2023-03-06T06:43:01.347Z,39.65
2023-03-06T06:44:08.372Z,41.38
2023-03-06T06:45:13.093Z,42.53
2023-03-06T06:46:53.309Z,43.50
2023-03-06T06:47:40.940Z,38.53
2023-03-06T06:48:44.621Z,39.00
2023-03-06T06:49:51.560Z,40.05
2023-03-06T06:50:57.020Z,40.70
2023-03-06T06:52:00.978Z,39.92
2023-03-06T06:53:04.568Z,40.93
2023-03-06T06:54:10.661Z,41.17
2023-03-06T06:55:14.358Z,40.17
2023-03-06T06:56:18.048Z,41.35
2023-03-06T06:57:21.764Z,40.20
2023-03-06T06:58:25.575Z,38.83
2023-03-06T06:59:29.150Z,39.88
2023-03-06T07:00:32.782Z,40.83
2023-03-06T07:01:36.718Z,39.25
2023-03-06T07:02:40.413Z,39.92
2023-03-06T07:03:44.205Z,39.43
2023-03-06T07:05:02.457Z,38.40
2023-03-06T07:06:07.447Z,41.90
2023-03-06T07:07:11.197Z,39.63
2023-03-06T07:08:14.820Z,39.00
2023-03-06T07:09:20.468Z,40.23
2023-03-06T07:10:24.444Z,41.63
2023-03-06T07:11:28.477Z,41.03
2023-03-06T07:12:32.143Z,39.50
2023-03-06T07:13:36.157Z,37.15
2023-03-06T07:14:39.715Z,38.80
2023-03-06T07:15:43.370Z,38.97
2023-03-06T07:16:47.254Z,39.67
2023-03-06T07:17:51.155Z,39.63
2023-03-06T07:18:54.792Z,39.85
2023-03-06T07:19:58.636Z,38.47
2023-03-06T07:21:02.591Z,38.50
2023-03-06T07:22:06.410Z,40.63
2023-03-06T07:23:13.048Z,37.35
2023-03-06T07:24:16.745Z,38.15
2023-03-06T07:25:22.741Z,39.33
2023-03-06T07:26:26.803Z,38.10
2023-03-06T07:27:30.486Z,36.90
2023-03-06T07:28:49.811Z,36.05
2023-03-06T07:29:55.564Z,39.05
2023-03-06T07:30:59.272Z,37.30
2023-03-06T07:32:03.234Z,37.67
2023-03-06T07:33:06.892Z,36.75
2023-03-06T07:34:13.141Z,38.60
2023-03-06T07:35:20.378Z,39.85
2023-03-06T07:36:24.687Z,39.67
2023-03-06T07:37:29.726Z,38.70
2023-03-06T07:38:33.404Z,39.40
2023-03-06T07:39:36.981Z,38.33
2023-03-06T07:40:42.234Z,39.45
2023-03-06T07:41:45.936Z,39.43
2023-03-06T07:42:49.470Z,41.30
2023-03-06T07:43:53.128Z,40.47
2023-03-06T07:44:56.692Z,37.55
2023-03-06T07:46:00.833Z,38.80
2023-03-06T07:47:04.582Z,39.77
2023-03-06T07:48:08.231Z,41.53
2023-03-06T07:49:11.967Z,39.90
2023-03-06T07:50:15.569Z,38.50
2023-03-06T07:51:20.928Z,38.50
2023-03-06T07:52:24.604Z,39.43
2023-03-06T07:53:28.467Z,38.28
2023-03-06T07:54:32.166Z,38.72
2023-03-06T07:55:35.800Z,37.67
2023-03-06T07:56:41.017Z,39.22
2023-03-06T07:57:44.683Z,39.07
2023-03-06T07:58:48.694Z,39.17
2023-03-06T07:59:52.479Z,38.08
2023-03-06T08:00:56.136Z,39.58
2023-03-06T08:01:59.752Z,36.75
2023-03-06T08:03:03.690Z,38.03
2023-03-06T08:04:07.639Z,38.17
2023-03-06T08:05:13.995Z,37.95
2023-03-06T08:06:19.150Z,36.92
2023-03-06T08:07:23.154Z,36.53
2023-03-06T08:08:26.829Z,36.90
2023-03-06T08:09:30.936Z,35.15
2023-03-06T08:10:34.596Z,35.78
2023-03-06T08:11:38.326Z,38.47
2023-03-06T08:12:43.635Z,38.97
2023-03-06T08:13:47.664Z,38.87
2023-03-06T08:14:51.357Z,39.33
2023-03-06T08:15:54.964Z,38.28
2023-03-06T08:16:58.572Z,39.50
2023-03-06T08:18:02.143Z,37.08
2023-03-06T08:19:05.926Z,37.50
2023-03-06T08:20:10.674Z,37.58
2023-03-06T08:21:16.269Z,37.20
2023-03-06T08:22:19.915Z,35.97
2023-03-06T08:23:23.486Z,35.38
2023-03-06T08:24:27.183Z,36.03
2023-03-06T08:25:30.773Z,35.08
2023-03-06T08:26:35.055Z,36.05
2023-03-06T08:27:39.147Z,36.58
2023-03-06T08:28:44.691Z,37.65
2023-03-06T08:29:48.353Z,37.53
2023-03-06T08:30:51.973Z,37.47
2023-03-06T08:31:55.550Z,36.47
2023-03-06T08:33:01.904Z,36.55
2023-03-06T08:34:06.613Z,38.72
2023-03-06T08:35:16.037Z,37.37
2023-03-06T08:36:19.778Z,38.88
2023-03-06T08:37:23.486Z,36.50
2023-03-06T08:38:27.143Z,37.35
2023-03-06T08:39:30.726Z,37.45
2023-03-06T08:40:34.329Z,36.47
2023-03-06T08:41:38.427Z,36.70
2023-03-06T08:42:42.036Z,35.35
2023-03-06T08:43:47.306Z,37.08
2023-03-06T08:44:50.919Z,38.75
2023-03-06T08:45:55.274Z,36.57
2023-03-06T08:46:58.923Z,36.70
2023-03-06T08:48:02.555Z,36.88
2023-03-06T08:49:06.325Z,37.15
2023-03-06T08:50:11.259Z,37.45
2023-03-06T08:51:15.265Z,40.50
2023-03-06T08:52:18.848Z,38.83
2023-03-06T08:53:30.443Z,39.15
2023-03-06T08:54:40.347Z,39.47
2023-03-06T08:55:44.224Z,39.78
2023-03-06T08:56:48.079Z,39.10
2023-03-06T08:57:51.788Z,38.03
2023-03-06T08:58:58.838Z,37.83
2023-03-06T09:00:02.564Z,38.10
2023-03-06T09:01:06.453Z,39.28
2023-03-06T09:02:13.772Z,38.23
2023-03-06T09:03:17.320Z,37.80
2023-03-06T09:04:20.905Z,37.10
2023-03-06T09:05:24.539Z,36.60
2023-03-06T09:06:31.230Z,38.38
2023-03-06T09:07:35.222Z,38.57
2023-03-06T09:08:38.900Z,38.10
2023-03-06T09:09:42.521Z,37.58
2023-03-06T09:10:47.792Z,37.97
2023-03-06T09:11:51.395Z,37.60
2023-03-06T09:12:55.518Z,37.60
2023-03-06T09:14:00.885Z,39.63
2023-03-06T09:15:05.228Z,40.53
2023-03-06T09:16:09.127Z,38.83
2023-03-06T09:17:12.860Z,41.08
2023-03-06T09:18:16.424Z,39.67
2023-03-06T09:19:20.077Z,40.35
2023-03-06T09:20:23.842Z,40.95
2023-03-06T09:21:27.576Z,35.47
2023-03-06T09:22:31.166Z,30.83
2023-03-06T09:23:35.176Z,39.27
2023-03-06T09:24:38.723Z,40.47
2023-03-06T09:25:42.371Z,41.85
2023-03-06T09:26:47.582Z,40.90
2023-03-06T09:28:08.788Z,38.97
2023-03-06T09:29:16.060Z,40.77
2023-03-06T09:30:20.062Z,41.88
2023-03-06T09:31:23.797Z,40.75
2023-03-06T09:32:27.419Z,39.90
2023-03-06T09:33:31.030Z,38.10
2023-03-06T09:34:34.767Z,40.70
2023-03-06T09:35:43.453Z,40.30
2023-03-06T09:36:55.979Z,39.00
2023-03-06T09:38:01.056Z,39.17
2023-03-06T09:39:04.803Z,38.50
2023-03-06T09:40:15.097Z,37.63
2023-03-06T09:41:32.264Z,37.60
2023-03-06T09:42:36.233Z,40.00
2023-03-06T09:43:43.888Z,40.72
2023-03-06T09:44:54.625Z,40.58
2023-03-06T09:45:58.634Z,39.80
2023-03-06T09:47:19.706Z,38.55
2023-03-06T09:48:29.679Z,36.53
2023-03-06T09:49:45.656Z,41.42
2023-03-06T09:50:52.429Z,40.38
2023-03-06T09:52:03.107Z,39.37
2023-03-06T09:53:24.089Z,41.28
2023-03-06T09:54:38.402Z,38.97
2023-03-06T09:55:42.435Z,39.25
2023-03-06T09:56:49.586Z,40.13
2023-03-06T09:57:59.523Z,39.43
2023-03-06T09:59:08.357Z,39.50
2023-03-06T10:00:17.460Z,41.60
2023-03-06T10:01:25.369Z,39.53
2023-03-06T10:02:37.843Z,38.15
2023-03-06T10:03:50.270Z,40.17
2023-03-06T10:04:56.776Z,39.60
2023-03-06T10:06:04.931Z,39.17
2023-03-06T10:07:15.790Z,40.95
2023-03-06T10:08:25.667Z,39.85
2023-03-06T10:09:40.268Z,39.63
2023-03-06T10:10:47.633Z,38.90
2023-03-06T10:11:56.456Z,40.20
2023-03-06T10:13:06.709Z,38.85
2023-03-06T10:14:20.576Z,38.92
2023-03-06T10:15:28.284Z,36.50
2023-03-06T10:16:34.046Z,39.67
2023-03-06T10:17:43.286Z,37.78
2023-03-06T10:18:46.977Z,37.65
2023-03-06T10:19:50.993Z,38.30
2023-03-06T10:21:17.017Z,37.87
2023-03-06T10:22:29.606Z,39.30
2023-03-06T10:23:50.302Z,39.85
2023-03-06T10:24:59.408Z,41.22
2023-03-06T10:26:09.324Z,41.42
2023-03-06T10:27:20.347Z,39.47
2023-03-06T10:28:30.275Z,40.35
2023-03-06T10:29:56.431Z,40.13
2023-03-06T10:31:12.756Z,40.67
2023-03-06T10:32:30.566Z,39.95
2023-03-06T10:33:51.725Z,41.43
2023-03-06T10:35:00.111Z,40.72
2023-03-06T10:36:04.304Z,41.13
2023-03-06T10:37:17.663Z,40.92
2023-03-06T10:38:24.697Z,39.90
2023-03-06T10:39:29.903Z,40.70
2023-03-06T10:40:43.826Z,40.20
2023-03-06T10:41:47.858Z,41.22
2023-03-06T10:43:01.624Z,41.25
2023-03-06T10:44:25.538Z,39.88
2023-03-06T10:45:33.074Z,41.13
2023-03-06T10:46:47.467Z,39.00
2023-03-06T10:47:51.153Z,39.80
2023-03-06T10:48:59.890Z,40.40
2023-03-06T10:50:08.380Z,39.50
2023-03-06T10:51:18.817Z,40.03
2023-03-06T10:52:23.949Z,39.80
2023-03-06T10:53:29.538Z,42.03
2023-03-06T10:54:35.061Z,40.30
2023-03-06T10:55:38.951Z,41.00
2023-03-06T10:56:43.972Z,42.33
2023-03-06T10:57:47.570Z,41.42
2023-03-06T10:59:06.698Z,42.67
2023-03-06T11:00:34.614Z,40.45
2023-03-06T11:01:38.424Z,41.42
2023-03-06T11:02:43.808Z,42.17
2023-03-06T11:03:47.820Z,42.78
2023-03-06T11:04:54.467Z,42.28
2023-03-06T11:06:07.061Z,41.85
2023-03-06T11:07:16.205Z,42.97
2023-03-06T11:08:23.582Z,42.73
2023-03-06T11:09:27.448Z,41.42
2023-03-06T11:10:32.682Z,43.17
2023-03-06T11:11:37.975Z,41.00
2023-03-06T11:12:43.351Z,41.45
2023-03-06T11:13:58.439Z,41.47
2023-03-06T11:15:18.592Z,41.55
2023-03-06T11:16:27.562Z,41.17
2023-03-06T11:17:31.608Z,41.85
2023-03-06T11:18:41.952Z,43.22
2023-03-06T11:19:45.676Z,42.23
2023-03-06T11:20:53.132Z,40.92
2023-03-06T11:22:05.887Z,42.83
2023-03-06T11:23:15.740Z,42.25
2023-03-06T11:24:21.228Z,42.38
2023-03-06T11:25:30.759Z,43.20
2023-03-06T11:26:41.072Z,41.05
2023-03-06T11:27:47.810Z,40.67
2023-03-06T11:28:58.646Z,39.35
2023-03-06T11:30:05.997Z,40.17
2023-03-06T11:31:14.633Z,40.77
2023-03-06T11:32:21.852Z,41.38
2023-03-06T11:33:31.505Z,41.55
2023-03-06T11:34:45.561Z,41.22
2023-03-06T11:35:55.285Z,42.40
2023-03-06T11:37:04.506Z,41.70
2023-03-06T11:38:15.315Z,41.20
2023-03-06T11:39:27.228Z,41.03
2023-03-06T11:40:38.007Z,41.78
2023-03-06T11:41:53.285Z,41.63
2023-03-06T11:43:06.780Z,41.27
2023-03-06T11:44:17.842Z,41.88
2023-03-06T11:45:29.349Z,42.35
2023-03-06T11:46:38.434Z,41.45
2023-03-06T11:47:47.057Z,42.55
2023-03-06T11:48:54.398Z,43.00
2023-03-06T11:50:14.554Z,42.33
2023-03-06T11:51:22.748Z,42.67
2023-03-06T11:52:30.150Z,42.55
2023-03-06T11:53:36.298Z,41.90
2023-03-06T11:54:39.897Z,42.83
2023-03-06T11:55:50.012Z,43.05
2023-03-06T11:56:57.272Z,42.03
2023-03-06T11:58:17.899Z,42.20
2023-03-06T11:59:36.976Z,44.42
2023-03-06T12:00:51.027Z,42.43
2023-03-06T12:02:05.412Z,42.35
2023-03-06T12:03:33.642Z,41.05
2023-03-06T12:04:47.335Z,41.97
2023-03-06T12:06:01.837Z,42.72
2023-03-06T12:07:16.337Z,42.37
2023-03-06T12:08:37.134Z,42.42
2023-03-06T12:09:47.440Z,42.33
2023-03-06T12:10:55.259Z,42.13
2023-03-06T12:12:14.083Z,41.25
2023-03-06T12:13:29.948Z,42.20
2023-03-06T12:14:54.215Z,42.70
2023-03-06T12:16:23.541Z,40.78
2023-03-06T12:17:37.066Z,41.50
2023-03-06T12:18:52.150Z,42.33
2023-03-06T12:20:15.114Z,42.63
2023-03-06T12:21:31.045Z,42.40
2023-03-06T12:23:14.470Z,43.20
2023-03-06T12:24:42.271Z,42.08
2023-03-06T12:25:54.485Z,44.83
2023-03-06T12:27:14.145Z,42.80
2023-03-06T12:28:47.287Z,44.10
2023-03-06T12:30:18.657Z,44.05
2023-03-06T12:31:48.303Z,43.92
2023-03-06T12:32:58.699Z,43.22
2023-03-06T12:34:15.179Z,42.77
2023-03-06T12:35:38.924Z,43.58
2023-03-06T12:37:01.733Z,39.58
2023-03-06T12:38:24.446Z,39.03
2023-03-06T12:39:38.200Z,39.55
2023-03-06T12:41:07.043Z,40.83
2023-03-06T12:42:25.183Z,38.70
2023-03-06T12:44:02.306Z,40.38
2023-03-06T12:45:22.717Z,41.38
2023-03-06T12:46:27.411Z,39.35
2023-03-06T12:47:34.332Z,40.90
2023-03-06T12:48:40.548Z,39.58
2023-03-06T12:49:47.478Z,39.20
2023-03-06T12:50:51.837Z,37.83
2023-03-06T12:51:57.937Z,38.10
2023-03-06T12:53:05.083Z,37.23
2023-03-06T12:54:11.362Z,38.30
2023-03-06T12:55:22.134Z,37.72
2023-03-06T12:56:28.955Z,38.30
2023-03-06T12:57:32.662Z,39.58
2023-03-06T12:58:50.341Z,38.67
2023-03-06T12:59:55.244Z,37.63
2023-03-06T13:01:04.525Z,39.38
2023-03-06T13:02:55.913Z,36.30
2023-03-06T13:04:20.831Z,37.25
2023-03-06T13:05:43.235Z,36.50
2023-03-06T13:07:03.040Z,35.40
2023-03-06T13:08:30.717Z,37.03
2023-03-06T13:09:53.163Z,39.20
2023-03-06T13:11:26.601Z,39.85
2023-03-06T13:12:51.152Z,41.27
2023-03-06T13:13:55.574Z,39.72
2023-03-06T13:15:01.460Z,40.38
2023-03-06T13:16:13.998Z,37.72
2023-03-06T13:17:35.876Z,39.78
2023-03-06T13:19:11.977Z,39.00
2023-03-06T13:20:30.313Z,42.35
2023-03-06T13:22:03.663Z,39.80
2023-03-06T13:23:43.037Z,39.42
2023-03-06T13:24:46.718Z,38.85
2023-03-06T13:25:51.511Z,37.57
2023-03-06T13:27:00.565Z,39.22
2023-03-06T13:28:04.948Z,40.03
2023-03-06T13:29:52.379Z,40.38
2023-03-06T13:30:56.168Z,40.25
2023-03-06T13:32:17.818Z,38.23
2023-03-06T13:33:53.191Z,39.67
2023-03-06T13:34:57.580Z,39.88
2023-03-06T13:36:20.162Z,38.95
2023-03-06T13:37:53.368Z,39.72
2023-03-06T13:39:11.726Z,39.60
2023-03-06T13:40:30.638Z,41.00
2023-03-06T13:41:56.570Z,41.25
2023-03-06T13:43:21.555Z,41.08
2023-03-06T13:44:43.749Z,41.10
2023-03-06T13:45:49.427Z,40.63
2023-03-06T13:47:00.016Z,39.22
2023-03-06T13:48:27.253Z,40.92
2023-03-06T13:49:28.318Z,41.70
2023-03-06T13:50:39.551Z,41.60
2023-03-06T13:51:50.473Z,41.67
2023-03-06T13:53:23.666Z,42.70
2023-03-06T13:54:40.961Z,42.00
2023-03-06T13:55:52.798Z,41.53
2023-03-06T13:57:34.569Z,40.80
2023-03-06T13:58:55.846Z,43.37
2023-03-06T14:00:37.161Z,40.63
2023-03-06T14:01:49.844Z,41.28
2023-03-06T14:03:23.930Z,41.72
2023-03-06T14:04:38.263Z,42.70
2023-03-06T14:05:46.723Z,41.63
2023-03-06T14:06:54.108Z,41.45
2023-03-06T14:08:10.296Z,40.60
2023-03-06T14:09:22.845Z,42.97
2023-03-06T14:10:27.896Z,40.88
2023-03-06T14:11:33.166Z,39.47
2023-03-06T14:12:38.960Z,38.95
2023-03-06T14:13:49.362Z,42.50
2023-03-06T14:14:56.796Z,43.25
2023-03-06T14:16:00.581Z,42.75
2023-03-06T14:17:05.657Z,41.87
2023-03-06T14:18:16.941Z,40.22
2023-03-06T14:19:21.005Z,42.83
2023-03-06T14:20:32.745Z,43.25
2023-03-06T14:21:46.276Z,44.90
2023-03-06T14:22:49.999Z,43.40
2023-03-06T14:24:01.126Z,46.10
2023-03-06T14:25:11.408Z,45.72
2023-03-06T14:26:17.679Z,44.28
2023-03-06T14:27:21.427Z,41.65